Indianapolis, Indiana
Traffic Map
Current Weather Conditions
Indianapolis, Indiana
Overcast Haze
Overcast
72°
Feels Like: 72°
Wind Chill: 72° Ceiling: 400
Heat Index: 72° Visibility: 4mi
Dew Point: 70° Wind: 6mph
Humidity: 93% Direction: 280° (W)
Pressure: 30.07in Gusts: 0mph
Raw Report DataKIND 271117Z 28005KT 4SM BR BKN004 OVC200 22/21 A3007 RMK AO2 T02220211
Traffic Incident Summary
Active as of:
Severity:
Category:
InformationThere was an issue retrieving the traffic information for this location. Please try a different location or try again shortly.
Advertisements
Track Severe Weather on mobile